sensor_id;sensor_type;location;lat;lon;timestamp;pressure;altitude;pressure_sealevel;temperature;humidity
5996;BME280;3026;53.612;7.278;2024-02-21T00:01:06;101676.66;;;9.90;100.00
5996;BME280;3026;53.612;7.278;2024-02-21T00:03:33;101682.13;;;9.90;100.00
5996;BME280;3026;53.612;7.278;2024-02-21T00:06:01;101670.34;;;9.89;100.00
5996;BME280;3026;53.612;7.278;2024-02-21T00:08:29;101670.34;;;9.89;100.00
5996;BME280;3026;53.612;7.278;2024-02-21T00:10:57;101661.16;;;9.90;100.00
5996;BME280;3026;53.612;7.278;2024-02-21T00:13:30;101656.72;;;9.89;100.00
5996;BME280;3026;53.612;7.278;2024-02-21T00:15:57;101654.00;;;9.89;100.00
5996;BME280;3026;53.612;7.278;2024-02-21T00:18:24;101639.38;;;9.90;100.00
5996;BME280;3026;53.612;7.278;2024-02-21T00:20:52;101635.66;;;9.91;100.00
5996;BME280;3026;53.612;7.278;2024-02-21T00:23:19;101595.78;;;9.90;100.00
5996;BME280;3026;53.612;7.278;2024-02-21T00:25:49;101586.06;;;9.88;100.00
5996;BME280;3026;53.612;7.278;2024-02-21T00:28:16;101621.63;;;9.86;100.00
5996;BME280;3026;53.612;7.278;2024-02-21T00:30:44;101622.22;;;9.80;100.00
5996;BME280;3026;53.612;7.278;2024-02-21T00:33:13;101593.25;;;9.79;100.00
5996;BME280;3026;53.612;7.278;2024-02-21T00:35:41;101611.63;;;9.77;100.00
5996;BME280;3026;53.612;7.278;2024-02-21T00:38:07;101608.19;;;9.75;100.00
5996;BME280;3026;53.612;7.278;2024-02-21T00:40:35;101600.28;;;9.72;100.00
5996;BME280;3026;53.612;7.278;2024-02-21T00:43:04;101602.16;;;9.72;100.00
5996;BME280;3026;53.612;7.278;2024-02-21T00:45:32;101587.84;;;9.70;100.00
5996;BME280;3026;53.612;7.278;2024-02-21T00:48:00;101579.81;;;9.68;100.00
5996;BME280;3026;53.612;7.278;2024-02-21T00:50:28;101589.00;;;9.67;100.00
5996;BME280;3026;53.612;7.278;2024-02-21T00:52:55;101581.84;;;9.66;100.00
5996;BME280;3026;53.612;7.278;2024-02-21T00:55:23;101568.38;;;9.64;100.00
5996;BME280;3026;53.612;7.278;2024-02-21T00:57:50;101577.56;;;9.63;100.00
5996;BME280;3026;53.612;7.278;2024-02-21T01:00:19;101573.28;;;9.61;100.00
5996;BME280;3026;53.612;7.278;2024-02-21T01:02:47;101574.13;;;9.61;100.00
5996;BME280;3026;53.612;7.278;2024-02-21T01:05:15;101581.56;;;9.59;100.00
5996;BME280;3026;53.612;7.278;2024-02-21T01:07:42;101566.25;;;9.58;100.00
5996;BME280;3026;53.612;7.278;2024-02-21T01:10:10;101577.28;;;9.57;100.00
5996;BME280;3026;53.612;7.278;2024-02-21T01:12:37;101563.81;;;9.55;100.00
5996;BME280;3026;53.612;7.278;2024-02-21T01:15:06;101562.97;;;9.55;100.00
5996;BME280;3026;53.612;7.278;2024-02-21T01:17:35;101562.25;;;9.53;100.00
5996;BME280;3026;53.612;7.278;2024-02-21T01:20:03;101564.97;;;9.53;100.00
5996;BME280;3026;53.612;7.278;2024-02-21T01:22:32;101573.16;;;9.53;100.00
5996;BME280;3026;53.612;7.278;2024-02-21T01:25:03;101575.88;;;9.53;100.00
5996;BME280;3026;53.612;7.278;2024-02-21T01:27:32;101572.28;;;9.52;100.00
5996;BME280;3026;53.612;7.278;2024-02-21T01:29:59;101559.53;;;9.53;100.00
5996;BME280;3026;53.612;7.278;2024-02-21T01:32:27;101561.56;;;9.51;100.00
5996;BME280;3026;53.612;7.278;2024-02-21T01:34:55;101562.41;;;9.51;100.00
5996;BME280;3026;53.612;7.278;2024-02-21T01:37:23;101559.53;;;9.53;100.00
5996;BME280;3026;53.612;7.278;2024-02-21T01:39:50;101551.38;;;9.53;100.00
5996;BME280;3026;53.612;7.278;2024-02-21T01:42:17;101545.22;;;9.51;100.00
5996;BME280;3026;53.612;7.278;2024-02-21T01:44:45;101548.94;;;9.50;100.00
5996;BME280;3026;53.612;7.278;2024-02-21T01:47:13;101545.22;;;9.51;100.00
5996;BME280;3026;53.612;7.278;2024-02-21T01:49:41;101550.66;;;9.51;100.00
5996;BME280;3026;53.612;7.278;2024-02-21T01:52:12;101542.50;;;9.51;100.00
5996;BME280;3026;53.612;7.278;2024-02-21T01:54:40;101539.03;;;9.49;100.00
5996;BME280;3026;53.612;7.278;2024-02-21T01:57:08;101538.06;;;9.50;100.00
5996;BME280;3026;53.612;7.278;2024-02-21T01:59:35;101540.91;;;9.48;100.00
5996;BME280;3026;53.612;7.278;2024-02-21T02:02:03;101549.94;;;9.49;100.00
5996;BME280;3026;53.612;7.278;2024-02-21T02:04:30;101538.34;;;9.47;100.00
5996;BME280;3026;53.612;7.278;2024-02-21T02:07:00;101536.63;;;9.46;100.00
5996;BME280;3026;53.612;7.278;2024-02-21T02:09:30;101540.34;;;9.45;100.00
5996;BME280;3026;53.612;7.278;2024-02-21T02:11:59;101542.38;;;9.43;100.00
5996;BME280;3026;53.612;7.278;2024-02-21T02:14:28;101531.47;;;9.43;100.00
5996;BME280;3026;53.612;7.278;2024-02-21T02:16:55;101539.66;;;9.43;100.00
5996;BME280;3026;53.612;7.278;2024-02-21T02:19:22;101524.31;;;9.42;100.00
5996;BME280;3026;53.612;7.278;2024-02-21T02:21:51;101522.63;;;9.41;100.00
5996;BME280;3026;53.612;7.278;2024-02-21T02:24:24;101520.91;;;9.40;100.00
5996;BME280;3026;53.612;7.278;2024-02-21T02:26:52;101521.91;;;9.39;100.00
5996;BME280;3026;53.612;7.278;2024-02-21T02:29:20;101530.06;;;9.39;100.00
5996;BME280;3026;53.612;7.278;2024-02-21T02:31:49;101519.19;;;9.39;100.00
5996;BME280;3026;53.612;7.278;2024-02-21T02:34:16;101527.34;;;9.39;100.00
5996;BME280;3026;53.612;7.278;2024-02-21T02:36:45;101515.72;;;9.36;100.00
5996;BME280;3026;53.612;7.278;2024-02-21T02:39:14;101517.44;;;9.38;100.00
5996;BME280;3026;53.612;7.278;2024-02-21T02:41:44;101511.16;;;9.37;100.00
5996;BME280;3026;53.612;7.278;2024-02-21T02:44:13;101508.56;;;9.35;100.00
5996;BME280;3026;53.612;7.278;2024-02-21T02:46:40;101515.72;;;9.36;100.00
5996;BME280;3026;53.612;7.278;2024-02-21T02:49:08;101508.56;;;9.35;100.00
5996;BME280;3026;53.612;7.278;2024-02-21T02:51:35;101505.16;;;9.33;100.00
5996;BME280;3026;53.612;7.278;2024-02-21T02:54:03;101508.88;;;9.32;100.00
5996;BME280;3026;53.612;7.278;2024-02-21T02:56:31;101501.72;;;9.31;100.00
5996;BME280;3026;53.612;7.278;2024-02-21T02:59:00;101487.41;;;9.29;100.00
5996;BME280;3026;53.612;7.278;2024-02-21T03:01:27;101492.84;;;9.29;100.00
5996;BME280;3026;53.612;7.278;2024-02-21T03:03:54;101492.84;;;9.29;100.00
5996;BME280;3026;53.612;7.278;2024-02-21T03:06:23;101480.97;;;9.30;100.00
5996;BME280;3026;53.612;7.278;2024-02-21T03:08:50;101491.84;;;9.30;100.00
5996;BME280;3026;53.612;7.278;2024-02-21T03:11:20;101488.28;;;9.30;100.00
5996;BME280;3026;53.612;7.278;2024-02-21T03:13:55;101491.16;;;9.28;100.00
5996;BME280;3026;53.612;7.278;2024-02-21T03:16:25;101477.53;;;9.28;100.00
5996;BME280;3026;53.612;7.278;2024-02-21T03:18:53;101478.53;;;9.27;100.00
5996;BME280;3026;53.612;7.278;2024-02-21T03:21:21;101491.28;;;9.27;100.00
5996;BME280;3026;53.612;7.278;2024-02-21T03:23:48;101476.84;;;9.26;100.00
5996;BME280;3026;53.612;7.278;2024-02-21T03:26:15;101480.53;;;9.25;100.00
5996;BME280;3026;53.612;7.278;2024-02-21T03:28:43;101483.25;;;9.25;100.00
5996;BME280;3026;53.612;7.278;2024-02-21T03:31:12;101488.69;;;9.25;100.00
5996;BME280;3026;53.612;7.278;2024-02-21T03:33:42;101477.97;;;9.24;100.00
5996;BME280;3026;53.612;7.278;2024-02-21T03:36:13;101470.81;;;9.23;100.00
5996;BME280;3026;53.612;7.278;2024-02-21T03:38:41;101472.53;;;9.24;100.00
5996;BME280;3026;53.612;7.278;2024-02-21T03:41:09;101477.09;;;9.23;100.00
5996;BME280;3026;53.612;7.278;2024-02-21T03:43:37;101482.56;;;9.23;100.00
5996;BME280;3026;53.612;7.278;2024-02-21T03:46:04;101479.97;;;9.22;100.00
5996;BME280;3026;53.612;7.278;2024-02-21T03:48:32;101477.41;;;9.20;100.00
5996;BME280;3026;53.612;7.278;2024-02-21T03:51:01;101481.16;;;9.19;100.00
5996;BME280;3026;53.612;7.278;2024-02-21T03:53:28;101475.69;;;9.19;100.00
5996;BME280;3026;53.612;7.278;2024-02-21T03:55:56;101479.44;;;9.18;100.00
5996;BME280;3026;53.612;7.278;2024-02-21T03:58:29;101474.00;;;9.18;100.00
5996;BME280;3026;53.612;7.278;2024-02-21T04:00:59;101483.88;;;9.19;100.00
5996;BME280;3026;53.612;7.278;2024-02-21T04:03:26;101482.00;;;9.20;100.00
5996;BME280;3026;53.612;7.278;2024-02-21T04:05:53;101475.69;;;9.19;100.00
5996;BME280;3026;53.612;7.278;2024-02-21T04:08:22;101480.28;;;9.19;100.00
5996;BME280;3026;53.612;7.278;2024-02-21T04:10:54;101468.53;;;9.18;100.00
5996;BME280;3026;53.612;7.278;2024-02-21T04:13:21;101474.00;;;9.18;100.00
5996;BME280;3026;53.612;7.278;2024-02-21T04:15:49;101484.88;;;9.18;100.00
5996;BME280;3026;53.612;7.278;2024-02-21T04:18:16;101472.97;;;9.19;100.00
5996;BME280;3026;53.612;7.278;2024-02-21T04:20:43;101481.16;;;9.19;100.00
5996;BME280;3026;53.612;7.278;2024-02-21T04:23:10;101475.69;;;9.19;100.00
5996;BME280;3026;53.612;7.278;2024-02-21T04:25:41;101477.56;;;9.19;100.00
5996;BME280;3026;53.612;7.278;2024-02-21T04:28:08;101476.56;;;9.20;100.00
5996;BME280;3026;53.612;7.278;2024-02-21T04:30:35;101475.69;;;9.19;100.00
5996;BME280;3026;53.612;7.278;2024-02-21T04:33:03;101478.41;;;9.19;100.00
5996;BME280;3026;53.612;7.278;2024-02-21T04:35:31;101480.28;;;9.19;100.00
5996;BME280;3026;53.612;7.278;2024-02-21T04:37:59;101474.00;;;9.18;100.00
5996;BME280;3026;53.612;7.278;2024-02-21T04:40:27;101476.56;;;9.20;100.00
5996;BME280;3026;53.612;7.278;2024-02-21T04:42:55;101474.00;;;9.18;100.00
5996;BME280;3026;53.612;7.278;2024-02-21T04:45:23;101473.13;;;9.18;100.00
5996;BME280;3026;53.612;7.278;2024-02-21T04:47:51;101472.28;;;9.17;100.00
5996;BME280;3026;53.612;7.278;2024-02-21T04:50:19;101474.00;;;9.18;100.00
5996;BME280;3026;53.612;7.278;2024-02-21T04:52:46;101468.53;;;9.18;100.00
5996;BME280;3026;53.612;7.278;2024-02-21T04:55:14;101466.84;;;9.17;100.00
5996;BME280;3026;53.612;7.278;2024-02-21T04:57:41;101467.84;;;9.16;100.00
5996;BME280;3026;53.612;7.278;2024-02-21T05:00:12;101463.09;;;9.18;100.00
5996;BME280;3026;53.612;7.278;2024-02-21T05:02:39;101466.84;;;9.17;100.00
5996;BME280;3026;53.612;7.278;2024-02-21T05:05:07;101471.25;;;9.18;100.00
5996;BME280;3026;53.612;7.278;2024-02-21T05:07:35;101475.00;;;9.17;100.00
5996;BME280;3026;53.612;7.278;2024-02-21T05:10:02;101472.28;;;9.17;100.00
5996;BME280;3026;53.612;7.278;2024-02-21T05:12:29;101465.13;;;9.16;100.00
5996;BME280;3026;53.612;7.278;2024-02-21T05:14:56;101460.69;;;9.15;100.00
5996;BME280;3026;53.612;7.278;2024-02-21T05:17:26;101464.25;;;9.16;100.00
5996;BME280;3026;53.612;7.278;2024-02-21T05:19:54;101456.09;;;9.16;100.00
5996;BME280;3026;53.612;7.278;2024-02-21T05:22:21;101457.97;;;9.15;100.00
5996;BME280;3026;53.612;7.278;2024-02-21T05:24:50;101457.97;;;9.15;100.00
5996;BME280;3026;53.612;7.278;2024-02-21T05:27:17;101451.50;;;9.16;100.00
5996;BME280;3026;53.612;7.278;2024-02-21T05:29:44;101447.94;;;9.16;100.00
5996;BME280;3026;53.612;7.278;2024-02-21T05:32:17;101455.25;;;9.15;100.00
5996;BME280;3026;53.612;7.278;2024-02-21T05:34:48;101448.06;;;9.14;100.00
5996;BME280;3026;53.612;7.278;2024-02-21T05:37:16;101439.03;;;9.14;100.00
5996;BME280;3026;53.612;7.278;2024-02-21T05:39:44;101438.19;;;9.13;100.00
5996;BME280;3026;53.612;7.278;2024-02-21T05:42:11;101442.78;;;9.13;100.00
5996;BME280;3026;53.612;7.278;2024-02-21T05:44:38;101439.19;;;9.12;100.00
5996;BME280;3026;53.612;7.278;2024-02-21T05:47:05;101441.91;;;9.12;100.00
5996;BME280;3026;53.612;7.278;2024-02-21T05:49:35;101447.34;;;9.12;100.00
5996;BME280;3026;53.612;7.278;2024-02-21T05:52:05;101441.91;;;9.12;100.00
5996;BME280;3026;53.612;7.278;2024-02-21T05:54:33;101449.06;;;9.13;100.00
5996;BME280;3026;53.612;7.278;2024-02-21T05:57:00;101442.78;;;9.13;100.00
5996;BME280;3026;53.612;7.278;2024-02-21T05:59:27;101439.34;;;9.11;100.00
5996;BME280;3026;53.612;7.278;2024-02-21T06:01:57;101450.22;;;9.11;100.00
5996;BME280;3026;53.612;7.278;2024-02-21T06:04:25;101449.38;;;9.10;100.00
5996;BME280;3026;53.612;7.278;2024-02-21T06:06:55;101446.66;;;9.10;100.00
5996;BME280;3026;53.612;7.278;2024-02-21T06:09:24;101443.06;;;9.10;100.00
5996;BME280;3026;53.612;7.278;2024-02-21T06:11:55;101442.22;;;9.09;100.00
5996;BME280;3026;53.612;7.278;2024-02-21T06:14:22;101446.81;;;9.09;100.00
5996;BME280;3026;53.612;7.278;2024-02-21T06:16:50;101453.09;;;9.09;100.00
5996;BME280;3026;53.612;7.278;2024-02-21T06:19:17;101436.78;;;9.09;100.00
5996;BME280;3026;53.612;7.278;2024-02-21T06:21:45;101438.50;;;9.10;100.00
5996;BME280;3026;53.612;7.278;2024-02-21T06:24:12;101429.31;;;9.11;100.00
5996;BME280;3026;53.612;7.278;2024-02-21T06:26:42;101433.06;;;9.10;100.00
5996;BME280;3026;53.612;7.278;2024-02-21T06:29:09;101414.00;;;9.10;100.00
5996;BME280;3026;53.612;7.278;2024-02-21T06:31:37;101405.84;;;9.10;100.00
5996;BME280;3026;53.612;7.278;2024-02-21T06:34:04;101422.16;;;9.10;100.00
5996;BME280;3026;53.612;7.278;2024-02-21T06:36:32;101422.16;;;9.10;100.00
5996;BME280;3026;53.612;7.278;2024-02-21T06:38:59;101415.88;;;9.10;100.00
5996;BME280;3026;53.612;7.278;2024-02-21T06:41:26;101410.59;;;9.08;100.00
5996;BME280;3026;53.612;7.278;2024-02-21T06:43:57;101405.84;;;9.10;100.00
5996;BME280;3026;53.612;7.278;2024-02-21T06:46:26;101394.97;;;9.10;100.00
5996;BME280;3026;53.612;7.278;2024-02-21T06:48:54;101404.13;;;9.09;100.00
5996;BME280;3026;53.612;7.278;2024-02-21T06:51:22;101406.69;;;9.11;100.00
5996;BME280;3026;53.612;7.278;2024-02-21T06:53:49;101409.56;;;9.09;100.00
5996;BME280;3026;53.612;7.278;2024-02-21T06:56:18;101405.84;;;9.10;100.00
5996;BME280;3026;53.612;7.278;2024-02-21T06:58:45;101405.84;;;9.10;100.00
5996;BME280;3026;53.612;7.278;2024-02-21T07:01:12;101408.56;;;9.10;100.00
5996;BME280;3026;53.612;7.278;2024-02-21T07:03:42;101404.13;;;9.09;100.00
5996;BME280;3026;53.612;7.278;2024-02-21T07:06:09;101411.28;;;9.10;100.00
5996;BME280;3026;53.612;7.278;2024-02-21T07:08:36;101406.00;;;9.09;100.00
5996;BME280;3026;53.612;7.278;2024-02-21T07:11:05;101404.13;;;9.09;100.00
5996;BME280;3026;53.612;7.278;2024-02-21T07:13:32;101394.09;;;9.10;100.00
5996;BME280;3026;53.612;7.278;2024-02-21T07:16:00;101396.66;;;9.11;100.00
5996;BME280;3026;53.612;7.278;2024-02-21T07:18:28;101388.50;;;9.11;100.00
5996;BME280;3026;53.612;7.278;2024-02-21T07:20:56;101392.09;;;9.12;100.00
5996;BME280;3026;53.612;7.278;2024-02-21T07:23:24;101387.50;;;9.12;100.00
5996;BME280;3026;53.612;7.278;2024-02-21T07:25:51;101383.78;;;9.13;100.00
5996;BME280;3026;53.612;7.278;2024-02-21T07:28:21;101388.19;;;9.14;100.00
5996;BME280;3026;53.612;7.278;2024-02-21T07:30:53;101392.66;;;9.15;100.00
5996;BME280;3026;53.612;7.278;2024-02-21T07:33:20;101381.78;;;9.15;100.00
5996;BME280;3026;53.612;7.278;2024-02-21T07:35:53;101395.22;;;9.17;100.00
5996;BME280;3026;53.612;7.278;2024-02-21T07:38:20;101388.78;;;9.18;100.00
5996;BME280;3026;53.612;7.278;2024-02-21T07:40:48;101385.75;;;9.21;100.00
5996;BME280;3026;53.612;7.278;2024-02-21T07:43:15;101382.88;;;9.22;100.00
5996;BME280;3026;53.612;7.278;2024-02-21T07:45:43;101384.59;;;9.23;100.00
5996;BME280;3026;53.612;7.278;2024-02-21T07:48:10;101390.72;;;9.25;100.00
5996;BME280;3026;53.612;7.278;2024-02-21T07:50:38;101375.41;;;9.24;100.00
5996;BME280;3026;53.612;7.278;2024-02-21T07:53:06;101380.84;;;9.24;100.00
5996;BME280;3026;53.612;7.278;2024-02-21T07:55:34;101377.13;;;9.25;100.00
5996;BME280;3026;53.612;7.278;2024-02-21T07:58:01;101375.41;;;9.24;100.00
5996;BME280;3026;53.612;7.278;2024-02-21T08:00:28;101366.25;;;9.25;100.00
5996;BME280;3026;53.612;7.278;2024-02-21T08:02:56;101370.81;;;9.25;100.00
5996;BME280;3026;53.612;7.278;2024-02-21T08:05:23;101367.97;;;9.26;100.00
5996;BME280;3026;53.612;7.278;2024-02-21T08:07:50;101364.25;;;9.27;100.00
5996;BME280;3026;53.612;7.278;2024-02-21T08:10:20;101363.41;;;9.27;100.00
5996;BME280;3026;53.612;7.278;2024-02-21T08:12:48;101364.25;;;9.27;100.00
5996;BME280;3026;53.612;7.278;2024-02-21T08:15:15;101359.66;;;9.28;100.00
5996;BME280;3026;53.612;7.278;2024-02-21T08:17:42;101347.94;;;9.27;100.00
5996;BME280;3026;53.612;7.278;2024-02-21T08:20:10;101334.31;;;9.27;100.00
5996;BME280;3026;53.612;7.278;2024-02-21T08:22:38;101344.19;;;9.28;100.00
5996;BME280;3026;53.612;7.278;2024-02-21T08:25:06;101327.88;;;9.28;100.00
5996;BME280;3026;53.612;7.278;2024-02-21T08:27:37;101324.13;;;9.29;100.00
5996;BME280;3026;53.612;7.278;2024-02-21T08:30:05;101329.56;;;9.29;100.00
5996;BME280;3026;53.612;7.278;2024-02-21T08:32:33;101320.41;;;9.30;100.00
5996;BME280;3026;53.612;7.278;2024-02-21T08:35:03;101332.13;;;9.31;100.00
5996;BME280;3026;53.612;7.278;2024-02-21T08:37:30;101332.13;;;9.31;100.00
5996;BME280;3026;53.612;7.278;2024-02-21T08:39:59;101323.81;;;9.32;100.00
5996;BME280;3026;53.612;7.278;2024-02-21T08:42:31;101337.59;;;9.31;100.00
5996;BME280;3026;53.612;7.278;2024-02-21T08:45:00;101334.00;;;9.30;100.00
5996;BME280;3026;53.612;7.278;2024-02-21T08:47:27;101332.13;;;9.31;100.00
5996;BME280;3026;53.612;7.278;2024-02-21T08:49:54;101324.13;;;9.29;100.00
5996;BME280;3026;53.612;7.278;2024-02-21T08:52:21;101320.41;;;9.30;100.00
5996;BME280;3026;53.612;7.278;2024-02-21T08:54:48;101318.69;;;9.29;100.00
5996;BME280;3026;53.612;7.278;2024-02-21T08:57:20;101314.97;;;9.30;100.00
5996;BME280;3026;53.612;7.278;2024-02-21T08:59:47;101299.31;;;9.32;100.00
5996;BME280;3026;53.612;7.278;2024-02-21T09:02:16;101303.75;;;9.33;100.00
5996;BME280;3026;53.612;7.278;2024-02-21T09:04:43;101311.22;;;9.31;100.00
5996;BME280;3026;53.612;7.278;2024-02-21T09:07:10;101314.63;;;9.33;100.00
5996;BME280;3026;53.612;7.278;2024-02-21T09:09:37;101308.88;;;9.36;100.00
5996;BME280;3026;53.612;7.278;2024-02-21T09:12:06;101302.75;;;9.34;100.00
5996;BME280;3026;53.612;7.278;2024-02-21T09:14:37;101305.16;;;9.38;100.00
5996;BME280;3026;53.612;7.278;2024-02-21T09:17:06;101299.72;;;9.38;100.00
5996;BME280;3026;53.612;7.278;2024-02-21T09:19:38;101295.16;;;9.38;100.00
5996;BME280;3026;53.612;7.278;2024-02-21T09:22:05;101292.28;;;9.40;100.00
5996;BME280;3026;53.612;7.278;2024-02-21T09:24:33;101281.38;;;9.40;100.00
5996;BME280;3026;53.612;7.278;2024-02-21T09:27:00;101279.34;;;9.42;100.00
5996;BME280;3026;53.612;7.278;2024-02-21T09:29:28;101271.19;;;9.42;100.00
5996;BME280;3026;53.612;7.278;2024-02-21T09:31:55;101281.06;;;9.43;100.00
5996;BME280;3026;53.612;7.278;2024-02-21T09:34:22;101281.06;;;9.43;100.00
5996;BME280;3026;53.612;7.278;2024-02-21T09:36:52;101275.63;;;9.43;100.00
5996;BME280;3026;53.612;7.278;2024-02-21T09:39:19;101271.88;;;9.44;100.00
5996;BME280;3026;53.612;7.278;2024-02-21T09:41:53;101267.28;;;9.44;100.00
5996;BME280;3026;53.612;7.278;2024-02-21T09:44:22;101259.13;;;9.44;100.00
5996;BME280;3026;53.612;7.278;2024-02-21T09:47:02;101259.28;;;9.43;100.00
5996;BME280;3026;53.612;7.278;2024-02-21T09:49:31;101258.28;;;9.44;100.00
5996;BME280;3026;53.612;7.278;2024-02-21T09:52:02;101255.56;;;9.44;100.00
5996;BME280;3026;53.612;7.278;2024-02-21T09:54:30;101251.81;;;9.45;100.00
5996;BME280;3026;53.612;7.278;2024-02-21T09:56:57;101251.13;;;9.43;100.00
5996;BME280;3026;53.612;7.278;2024-02-21T09:59:27;101241.41;;;9.40;100.00
5996;BME280;3026;53.612;7.278;2024-02-21T10:01:54;101245.84;;;9.41;100.00
5996;BME280;3026;53.612;7.278;2024-02-21T10:04:21;101241.25;;;9.42;100.00
5996;BME280;3026;53.612;7.278;2024-02-21T10:06:49;101241.25;;;9.42;100.00
5996;BME280;3026;53.612;7.278;2024-02-21T10:09:25;101228.66;;;9.41;100.00
5996;BME280;3026;53.612;7.278;2024-02-21T10:11:53;101233.09;;;9.42;100.00
5996;BME280;3026;53.612;7.278;2024-02-21T10:14:22;101233.09;;;9.42;100.00
5996;BME280;3026;53.612;7.278;2024-02-21T10:16:57;101226.63;;;9.43;100.00
5996;BME280;3026;53.612;7.278;2024-02-21T10:19:25;101230.03;;;9.45;100.00
5996;BME280;3026;53.612;7.278;2024-02-21T10:22:00;101219.16;;;9.45;100.00
5996;BME280;3026;53.612;7.278;2024-02-21T10:24:30;101210.28;;;9.43;100.00
5996;BME280;3026;53.612;7.278;2024-02-21T10:27:04;101209.28;;;9.44;100.00
5996;BME280;3026;53.612;7.278;2024-02-21T10:29:38;101206.56;;;9.44;100.00
5996;BME280;3026;53.612;7.278;2024-02-21T10:32:09;101204.16;;;9.41;100.00
5996;BME280;3026;53.612;7.278;2024-02-21T10:34:39;101200.44;;;9.42;100.00
5996;BME280;3026;53.612;7.278;2024-02-21T10:37:07;101189.53;;;9.42;100.00
5996;BME280;3026;53.612;7.278;2024-02-21T10:39:38;101179.66;;;9.41;100.00
5996;BME280;3026;53.612;7.278;2024-02-21T10:42:05;101179.34;;;9.44;100.00
5996;BME280;3026;53.612;7.278;2024-02-21T10:44:36;101176.63;;;9.44;100.00
5996;BME280;3026;53.612;7.278;2024-02-21T10:47:07;101170.16;;;9.45;100.00
5996;BME280;3026;53.612;7.278;2024-02-21T10:49:38;101164.72;;;9.45;100.00
5996;BME280;3026;53.612;7.278;2024-02-21T10:52:14;101158.09;;;9.47;100.00
5996;BME280;3026;53.612;7.278;2024-02-21T10:54:53;101151.50;;;9.50;100.00
5996;BME280;3026;53.612;7.278;2024-02-21T10:57:22;101154.91;;;9.52;100.00
5996;BME280;3026;53.612;7.278;2024-02-21T10:59:50;101153.22;;;9.51;100.00
5996;BME280;3026;53.612;7.278;2024-02-21T11:02:17;101153.22;;;9.51;100.00
5996;BME280;3026;53.612;7.278;2024-02-21T11:04:46;101149.47;;;9.52;100.00
5996;BME280;3026;53.612;7.278;2024-02-21T11:07:15;101145.75;;;9.53;100.00
5996;BME280;3026;53.612;7.278;2024-02-21T11:09:52;101142.84;;;9.54;100.00
5996;BME280;3026;53.612;7.278;2024-02-21T11:12:21;101139.81;;;9.57;100.00
5996;BME280;3026;53.612;7.278;2024-02-21T11:14:51;101139.66;;;9.59;100.00
5996;BME280;3026;53.612;7.278;2024-02-21T11:17:19;101126.03;;;9.59;100.00
5996;BME280;3026;53.612;7.278;2024-02-21T11:19:46;101128.75;;;9.59;100.00
5996;BME280;3026;53.612;7.278;2024-02-21T11:22:14;101116.16;;;9.58;100.00
5996;BME280;3026;53.612;7.278;2024-02-21T11:24:42;101116.16;;;9.58;100.00
5996;BME280;3026;53.612;7.278;2024-02-21T11:27:13;101103.56;;;9.57;100.00
5996;BME280;3026;53.612;7.278;2024-02-21T11:29:42;101101.53;;;9.59;100.00
5996;BME280;3026;53.612;7.278;2024-02-21T11:32:10;101105.25;;;9.58;100.00
5996;BME280;3026;53.612;7.278;2024-02-21T11:34:38;101101.84;;;9.56;100.00
5996;BME280;3026;53.612;7.278;2024-02-21T11:37:13;101099.81;;;9.58;100.00
5996;BME280;3026;53.612;7.278;2024-02-21T11:39:42;101084.34;;;9.58;100.00
5996;BME280;3026;53.612;7.278;2024-02-21T11:42:15;101081.63;;;9.58;100.00
5996;BME280;3026;53.612;7.278;2024-02-21T11:44:42;101087.91;;;9.59;100.00
5996;BME280;3026;53.612;7.278;2024-02-21T11:47:10;101066.84;;;9.61;100.00
5996;BME280;3026;53.612;7.278;2024-02-21T11:49:45;101077.41;;;9.64;100.00
5996;BME280;3026;53.612;7.278;2024-02-21T11:52:15;101071.63;;;9.67;100.00
5996;BME280;3026;53.612;7.278;2024-02-21T11:54:44;101066.03;;;9.69;100.00
5996;BME280;3026;53.612;7.278;2024-02-21T11:57:13;101068.22;;;9.65;100.00
5996;BME280;3026;53.612;7.278;2024-02-21T11:59:41;101054.63;;;9.65;100.00
5996;BME280;3026;53.612;7.278;2024-02-21T12:02:09;101047.13;;;9.67;100.00
5996;BME280;3026;53.612;7.278;2024-02-21T12:04:37;101043.22;;;9.70;100.00
5996;BME280;3026;53.612;7.278;2024-02-21T12:07:04;101036.59;;;9.72;100.00
5996;BME280;3026;53.612;7.278;2024-02-21T12:09:33;101034.59;;;9.74;100.00
5996;BME280;3026;53.612;7.278;2024-02-21T12:12:02;101023.38;;;9.77;100.00
5996;BME280;3026;53.612;7.278;2024-02-21T12:14:31;101017.59;;;9.80;100.00
5996;BME280;3026;53.612;7.278;2024-02-21T12:17:01;101013.84;;;9.81;100.00
5996;BME280;3026;53.612;7.278;2024-02-21T12:19:31;101010.09;;;9.82;100.00
5996;BME280;3026;53.612;7.278;2024-02-21T12:21:59;100997.19;;;9.84;100.00
5996;BME280;3026;53.612;7.278;2024-02-21T12:24:27;100989.38;;;9.89;100.00
5996;BME280;3026;53.612;7.278;2024-02-21T12:26:56;100987.34;;;9.91;100.00
5996;BME280;3026;53.612;7.278;2024-02-21T12:29:24;100978.13;;;9.92;100.00
5996;BME280;3026;53.612;7.278;2024-02-21T12:31:52;100980.69;;;9.94;100.00
5996;BME280;3026;53.612;7.278;2024-02-21T12:34:23;100960.59;;;9.95;100.00
5996;BME280;3026;53.612;7.278;2024-02-21T12:36:51;100946.50;;;10.00;100.00
5996;BME280;3026;53.612;7.278;2024-02-21T12:39:19;100939.88;;;10.02;100.00
5996;BME280;3026;53.612;7.278;2024-02-21T12:41:46;100933.22;;;10.05;100.00
5996;BME280;3026;53.612;7.278;2024-02-21T12:44:15;100926.63;;;10.07;100.00
5996;BME280;3026;53.612;7.278;2024-02-21T12:46:43;100923.00;;;10.07;100.00
5996;BME280;3026;53.612;7.278;2024-02-21T12:49:11;100913.13;;;10.06;100.00
5996;BME280;3026;53.612;7.278;2024-02-21T12:51:40;100903.94;;;10.07;100.00
5996;BME280;3026;53.612;7.278;2024-02-21T12:54:07;100913.13;;;10.06;100.00
5996;BME280;3026;53.612;7.278;2024-02-21T12:56:37;100898.84;;;10.04;100.00
5996;BME280;3026;53.612;7.278;2024-02-21T12:59:06;100903.59;;;10.02;100.00
5996;BME280;3026;53.612;7.278;2024-02-21T13:01:34;100891.69;;;10.03;100.00
5996;BME280;3026;53.612;7.278;2024-02-21T13:04:03;100889.97;;;10.02;100.00
5996;BME280;3026;53.612;7.278;2024-02-21T13:06:30;100886.56;;;10.00;100.00
5996;BME280;3026;53.612;7.278;2024-02-21T13:09:00;100889.47;;;9.98;100.00
5996;BME280;3026;53.612;7.278;2024-02-21T13:11:30;100878.75;;;9.97;100.00
5996;BME280;3026;53.612;7.278;2024-02-21T13:13:58;100874.31;;;9.96;100.00
5996;BME280;3026;53.612;7.278;2024-02-21T13:16:24;100860.84;;;9.94;100.00